createdAt,value
2022-12-17T00:01:45.792Z,13.70
2022-12-17T00:04:31.225Z,11.30
2022-12-17T00:07:16.645Z,11.67
2022-12-17T00:10:02.425Z,11.13
2022-12-17T00:12:47.940Z,12.37
2022-12-17T00:15:33.645Z,11.97
2022-12-17T00:18:26.076Z,12.90
2022-12-17T00:21:15.990Z,12.67
2022-12-17T00:24:01.505Z,12.10
2022-12-17T00:26:47.081Z,10.93
2022-12-17T00:29:34.175Z,13.03
2022-12-17T00:32:19.774Z,13.27
2022-12-17T00:35:06.116Z,11.93
2022-12-17T00:37:51.732Z,13.10
2022-12-17T00:40:37.733Z,12.53
2022-12-17T00:43:34.056Z,12.17
2022-12-17T00:46:19.844Z,12.83
2022-12-17T00:49:06.939Z,13.07
2022-12-17T00:51:53.504Z,13.10
2022-12-17T00:54:39.013Z,13.07
2022-12-17T00:57:24.590Z,13.43
2022-12-17T01:00:12.083Z,13.97
2022-12-17T01:02:57.554Z,13.93
2022-12-17T01:05:44.890Z,14.90
2022-12-17T01:08:33.753Z,13.87
2022-12-17T01:11:24.875Z,14.90
2022-12-17T01:14:11.098Z,15.63
2022-12-17T01:17:13.714Z,14.87
2022-12-17T01:19:59.008Z,15.23
2022-12-17T01:22:44.420Z,16.57
2022-12-17T01:25:29.862Z,16.87
2022-12-17T01:28:17.219Z,17.37
2022-12-17T01:31:02.768Z,17.30
2022-12-17T01:33:50.883Z,15.70
2022-12-17T01:36:38.159Z,15.93
2022-12-17T01:39:23.793Z,16.53
2022-12-17T01:42:08.978Z,16.17
2022-12-17T01:45:00.469Z,18.37
2022-12-17T01:47:49.231Z,18.27
2022-12-17T01:50:36.270Z,18.07
2022-12-17T01:53:24.824Z,17.50
2022-12-17T01:56:11.545Z,18.53
2022-12-17T01:58:58.702Z,18.07
2022-12-17T02:01:45.014Z,17.90
2022-12-17T02:04:31.358Z,18.10
2022-12-17T02:07:55.732Z,17.00
2022-12-17T02:10:46.280Z,17.20
2022-12-17T02:13:38.703Z,17.63
2022-12-17T02:16:33.817Z,17.57
2022-12-17T02:19:30.093Z,17.67
2022-12-17T02:22:21.183Z,16.13
2022-12-17T02:25:19.966Z,16.97
2022-12-17T02:28:05.959Z,16.67
2022-12-17T02:30:52.443Z,15.33
2022-12-17T02:33:38.697Z,16.07
2022-12-17T02:36:25.806Z,16.47
2022-12-17T02:39:11.422Z,15.93
2022-12-17T02:42:06.559Z,15.80
2022-12-17T02:44:53.853Z,15.43
2022-12-17T02:47:41.798Z,15.90
2022-12-17T02:50:29.352Z,15.90
2022-12-17T02:53:18.549Z,16.33
2022-12-17T02:56:03.913Z,16.23
2022-12-17T02:58:52.403Z,15.70
2022-12-17T03:01:38.162Z,15.63
2022-12-17T03:04:23.808Z,17.03
2022-12-17T03:07:09.612Z,15.13
2022-12-17T03:09:56.205Z,15.90
2022-12-17T03:12:42.716Z,14.53
2022-12-17T03:15:28.209Z,16.63
2022-12-17T03:18:13.472Z,15.60
2022-12-17T03:20:59.139Z,17.00
2022-12-17T03:23:44.585Z,16.27
2022-12-17T03:26:30.020Z,16.30
2022-12-17T03:29:15.627Z,14.43
2022-12-17T03:32:00.906Z,16.93
2022-12-17T03:34:46.673Z,16.30
2022-12-17T03:37:31.850Z,16.60
2022-12-17T03:40:17.471Z,16.57
2022-12-17T03:43:03.215Z,14.83
2022-12-17T03:45:48.868Z,17.10
2022-12-17T03:48:34.961Z,16.63
2022-12-17T03:51:20.861Z,15.37
2022-12-17T03:54:06.700Z,16.27
2022-12-17T03:56:52.514Z,15.77
2022-12-17T03:59:38.477Z,15.97
2022-12-17T04:02:24.042Z,16.63
2022-12-17T04:05:23.329Z,16.07
2022-12-17T04:08:08.786Z,17.00
2022-12-17T04:10:54.188Z,16.53
2022-12-17T04:13:42.768Z,17.00
2022-12-17T04:16:28.415Z,17.30
2022-12-17T04:19:14.054Z,17.40
2022-12-17T04:21:59.641Z,16.00
2022-12-17T04:24:45.429Z,16.43
2022-12-17T04:27:31.171Z,15.43
2022-12-17T04:30:16.791Z,16.43
2022-12-17T04:33:02.384Z,15.87
2022-12-17T04:35:47.981Z,15.70
2022-12-17T04:38:33.422Z,17.00
2022-12-17T04:41:19.241Z,16.50
2022-12-17T04:44:04.698Z,16.10
2022-12-17T04:46:50.147Z,16.37
2022-12-17T04:49:35.561Z,16.27
2022-12-17T04:52:21.084Z,17.00
2022-12-17T04:55:06.489Z,17.33
2022-12-17T04:57:52.223Z,16.00
2022-12-17T05:00:39.163Z,16.20
2022-12-17T05:03:26.411Z,15.70
2022-12-17T05:06:11.980Z,16.53
2022-12-17T05:08:57.443Z,16.23
2022-12-17T05:11:43.519Z,16.53
2022-12-17T05:14:29.276Z,15.77
2022-12-17T05:17:15.118Z,16.40
2022-12-17T05:20:00.713Z,15.80
2022-12-17T05:22:46.416Z,16.77
2022-12-17T05:25:31.920Z,16.67
2022-12-17T05:28:17.490Z,14.63
2022-12-17T05:31:10.812Z,17.10
2022-12-17T05:33:56.486Z,16.53
2022-12-17T05:36:41.604Z,16.47
2022-12-17T05:39:27.163Z,15.83
2022-12-17T05:42:12.597Z,16.40
2022-12-17T05:44:58.309Z,16.60
2022-12-17T05:47:43.914Z,16.03
2022-12-17T05:50:29.601Z,15.07
2022-12-17T05:53:23.938Z,15.77
2022-12-17T05:56:11.110Z,15.47
2022-12-17T05:58:57.372Z,14.70
2022-12-17T06:01:42.822Z,15.03
2022-12-17T06:04:29.506Z,14.50
2022-12-17T06:07:14.709Z,14.90
2022-12-17T06:10:00.397Z,13.93
2022-12-17T06:12:51.342Z,15.23
2022-12-17T06:15:37.035Z,16.43
2022-12-17T06:18:22.450Z,15.37
2022-12-17T06:21:08.428Z,16.17
2022-12-17T06:23:53.691Z,15.10
2022-12-17T06:26:38.929Z,14.17
2022-12-17T06:29:24.495Z,15.47
2022-12-17T06:32:10.580Z,14.90
2022-12-17T06:34:55.838Z,15.30
2022-12-17T06:38:01.125Z,15.27
2022-12-17T06:40:46.567Z,14.97
2022-12-17T06:43:31.980Z,16.83
2022-12-17T06:46:17.796Z,16.17
2022-12-17T06:49:04.215Z,15.57
2022-12-17T06:51:49.735Z,14.73
2022-12-17T06:54:35.526Z,14.80
2022-12-17T06:57:21.080Z,15.37
2022-12-17T07:00:06.642Z,16.83
2022-12-17T07:02:52.306Z,16.47
2022-12-17T07:05:38.047Z,16.50
2022-12-17T07:08:23.417Z,16.70
2022-12-17T07:11:09.397Z,17.60
2022-12-17T07:13:55.420Z,16.50
2022-12-17T07:16:41.362Z,15.37
2022-12-17T07:19:27.851Z,17.23
2022-12-17T07:22:14.654Z,16.73
2022-12-17T07:25:00.080Z,16.50
2022-12-17T07:27:45.704Z,16.93
2022-12-17T07:30:31.716Z,17.17
2022-12-17T07:33:23.189Z,16.80
2022-12-17T07:36:08.965Z,16.27
2022-12-17T07:38:54.548Z,16.60
2022-12-17T07:41:40.280Z,15.73
2022-12-17T07:44:26.138Z,17.23
2022-12-17T07:47:11.630Z,17.03
2022-12-17T07:49:57.309Z,17.53
2022-12-17T07:52:42.719Z,16.30
2022-12-17T07:55:28.135Z,17.60
2022-12-17T07:58:21.704Z,17.97
2022-12-17T08:01:07.370Z,18.00
2022-12-17T08:03:53.028Z,17.63
2022-12-17T08:06:38.947Z,17.77
2022-12-17T08:09:24.602Z,17.70
2022-12-17T08:12:10.264Z,17.37
2022-12-17T08:14:55.675Z,17.87
2022-12-17T08:17:41.207Z,18.30
2022-12-17T08:20:27.790Z,18.57
2022-12-17T08:23:20.336Z,17.63
2022-12-17T08:26:05.787Z,16.73
2022-12-17T08:28:51.475Z,17.00
2022-12-17T08:31:38.346Z,18.17
2022-12-17T08:34:23.814Z,18.20
2022-12-17T08:37:09.128Z,16.87
2022-12-17T08:39:54.884Z,17.30
2022-12-17T08:42:40.217Z,17.53
2022-12-17T08:45:26.677Z,18.50
2022-12-17T08:48:12.584Z,17.70
2022-12-17T08:50:57.899Z,18.00
2022-12-17T08:53:43.373Z,18.67
2022-12-17T08:56:28.866Z,17.17
2022-12-17T08:59:14.406Z,16.17
2022-12-17T09:02:00.058Z,16.20
2022-12-17T09:04:45.604Z,15.23
2022-12-17T09:07:32.316Z,15.63
2022-12-17T09:10:17.996Z,16.00
2022-12-17T09:13:05.080Z,18.50
2022-12-17T09:15:50.963Z,18.13
2022-12-17T09:18:40.600Z,18.17
2022-12-17T09:21:26.629Z,18.77
2022-12-17T09:24:12.462Z,16.37
2022-12-17T09:26:57.438Z,17.30
2022-12-17T09:29:43.120Z,17.17
2022-12-17T09:32:28.439Z,17.73
2022-12-17T09:35:13.790Z,16.60
2022-12-17T09:37:59.390Z,16.33
2022-12-17T09:40:44.719Z,17.03
2022-12-17T09:43:50.409Z,15.20
2022-12-17T09:46:57.776Z,16.90
2022-12-17T09:49:45.922Z,17.20
2022-12-17T09:52:48.671Z,19.00
2022-12-17T09:55:39.811Z,18.77
2022-12-17T09:58:41.110Z,16.40
2022-12-17T10:01:38.178Z,16.27
2022-12-17T10:04:29.571Z,16.10
2022-12-17T10:07:14.813Z,17.37
2022-12-17T10:10:01.189Z,16.53
2022-12-17T10:12:46.947Z,18.40
2022-12-17T10:15:34.416Z,16.17
2022-12-17T10:18:29.859Z,17.27
2022-12-17T10:21:23.657Z,16.73
2022-12-17T10:24:12.867Z,17.17
2022-12-17T10:27:07.713Z,17.30
2022-12-17T10:29:53.746Z,17.80
2022-12-17T10:32:42.826Z,19.03
2022-12-17T10:35:44.302Z,18.20
2022-12-17T10:38:40.223Z,16.13
2022-12-17T10:41:47.196Z,17.27
2022-12-17T10:44:39.567Z,17.03
2022-12-17T10:47:30.854Z,16.57
2022-12-17T10:50:21.116Z,17.17
2022-12-17T10:53:07.892Z,16.47
2022-12-17T10:55:54.681Z,16.77
2022-12-17T10:58:47.925Z,15.23
2022-12-17T11:01:42.938Z,16.60
2022-12-17T11:04:37.826Z,15.50
2022-12-17T11:07:23.279Z,13.70
2022-12-17T11:10:11.664Z,13.97
2022-12-17T11:13:05.364Z,14.70
2022-12-17T11:15:56.923Z,13.03
2022-12-17T11:18:49.769Z,15.33
2022-12-17T11:21:50.177Z,16.77
2022-12-17T11:24:44.502Z,15.60
2022-12-17T11:27:37.148Z,18.30
2022-12-17T11:30:34.391Z,16.93
2022-12-17T11:33:39.863Z,16.10
2022-12-17T11:36:40.178Z,17.33
2022-12-17T11:39:52.166Z,16.20
2022-12-17T11:42:51.967Z,16.47
2022-12-17T11:45:52.457Z,16.53
2022-12-17T11:48:53.700Z,16.93
2022-12-17T11:52:17.849Z,15.10
2022-12-17T11:55:35.160Z,16.17
2022-12-17T11:58:23.724Z,15.97
2022-12-17T12:01:18.145Z,16.03
2022-12-17T12:04:53.740Z,15.33
2022-12-17T12:08:07.485Z,16.43
2022-12-17T12:11:06.850Z,12.30
2022-12-17T12:14:14.003Z,15.13
2022-12-17T12:17:18.561Z,16.47
2022-12-17T12:20:58.935Z,15.73
2022-12-17T12:24:22.294Z,16.63
2022-12-17T12:27:57.113Z,17.27
2022-12-17T12:30:48.787Z,16.23
2022-12-17T12:33:37.430Z,16.43
2022-12-17T12:36:27.011Z,14.93
2022-12-17T12:39:15.620Z,16.10
2022-12-17T12:42:16.583Z,16.90
2022-12-17T12:45:21.660Z,14.80
2022-12-17T12:48:18.697Z,17.10
2022-12-17T12:51:14.692Z,16.57
2022-12-17T12:54:00.479Z,16.20
2022-12-17T12:56:55.224Z,17.03
2022-12-17T12:59:48.634Z,15.83
2022-12-17T13:02:50.450Z,14.90
2022-12-17T13:05:35.638Z,18.67
2022-12-17T13:08:20.212Z,17.93
2022-12-17T13:10:48.590Z,17.67
2022-12-17T13:13:18.594Z,17.33
2022-12-17T13:15:50.331Z,17.27
2022-12-17T13:18:28.525Z,17.77
2022-12-17T13:21:00.418Z,18.30
2022-12-17T13:23:31.449Z,16.67
2022-12-17T13:26:25.837Z,17.73
2022-12-17T13:28:55.539Z,17.23
2022-12-17T13:31:27.452Z,17.53
2022-12-17T13:34:16.959Z,17.77
2022-12-17T13:36:55.825Z,17.50
2022-12-17T13:39:22.799Z,18.17
2022-12-17T13:41:54.682Z,18.47
2022-12-17T13:44:25.590Z,18.40
2022-12-17T13:46:54.413Z,18.10
2022-12-17T13:49:22.527Z,18.57
2022-12-17T13:52:01.036Z,17.03
2022-12-17T13:54:28.126Z,17.27
2022-12-17T13:56:55.305Z,17.47
2022-12-17T13:59:24.907Z,17.37
2022-12-17T14:01:54.423Z,17.43
2022-12-17T14:04:27.005Z,18.67
2022-12-17T14:06:57.773Z,17.60
2022-12-17T14:09:35.226Z,16.70
2022-12-17T14:12:23.985Z,17.83
2022-12-17T14:15:28.443Z,19.27
2022-12-17T14:17:57.000Z,18.27
2022-12-17T14:20:26.205Z,19.20
2022-12-17T14:23:10.909Z,17.57
2022-12-17T14:25:43.257Z,18.83
2022-12-17T14:28:22.655Z,18.27
2022-12-17T14:31:24.796Z,18.20
2022-12-17T14:33:39.058Z,19.23
2022-12-17T14:36:21.300Z,18.57
2022-12-17T14:38:59.777Z,18.93
2022-12-17T14:41:47.246Z,19.83
2022-12-17T14:44:21.718Z,19.37
2022-12-17T14:46:49.038Z,19.93
2022-12-17T14:49:19.274Z,20.50
2022-12-17T14:51:47.851Z,21.13
2022-12-17T14:54:14.882Z,21.53
2022-12-17T14:56:42.880Z,19.20
2022-12-17T14:59:43.477Z,20.53
2022-12-17T15:02:20.315Z,21.17
2022-12-17T15:04:47.533Z,21.30
2022-12-17T15:07:19.590Z,23.00
2022-12-17T15:09:46.888Z,19.57
2022-12-17T15:12:13.957Z,22.77
2022-12-17T15:14:40.753Z,22.97
2022-12-17T15:17:07.550Z,21.87
2022-12-17T15:19:35.256Z,23.30
2022-12-17T15:22:04.186Z,22.83
2022-12-17T15:24:31.027Z,22.13
2022-12-17T15:26:58.427Z,23.10
2022-12-17T15:29:25.241Z,23.30
2022-12-17T15:31:52.059Z,22.67
2022-12-17T15:34:19.055Z,24.20
2022-12-17T15:36:45.909Z,23.83
2022-12-17T15:39:12.786Z,25.07
2022-12-17T15:41:58.393Z,24.40
2022-12-17T15:44:25.242Z,23.30
2022-12-17T15:46:52.187Z,24.47
2022-12-17T15:49:19.375Z,23.07
2022-12-17T15:51:46.827Z,22.17
2022-12-17T15:54:13.639Z,22.20
2022-12-17T15:56:40.993Z,22.20
2022-12-17T15:59:07.973Z,23.37
2022-12-17T16:01:35.389Z,21.83
2022-12-17T16:04:02.760Z,23.53
2022-12-17T16:06:29.567Z,22.67
2022-12-17T16:08:56.429Z,23.53
2022-12-17T16:11:23.408Z,23.50
2022-12-17T16:13:55.100Z,23.57
2022-12-17T16:16:22.464Z,24.53
2022-12-17T16:18:50.127Z,24.10
2022-12-17T16:21:17.101Z,23.50
2022-12-17T16:23:44.041Z,22.10
2022-12-17T16:26:11.823Z,23.13
2022-12-17T16:28:39.537Z,23.30
2022-12-17T16:31:09.486Z,23.13
2022-12-17T16:33:39.450Z,24.40
2022-12-17T16:36:08.190Z,23.67
2022-12-17T16:38:35.885Z,24.37
2022-12-17T16:41:03.804Z,21.83
2022-12-17T16:43:34.365Z,21.27
2022-12-17T16:46:01.869Z,23.23
2022-12-17T16:48:28.991Z,22.57
2022-12-17T16:50:55.752Z,22.00
2022-12-17T16:53:22.645Z,22.00
2022-12-17T16:55:50.205Z,24.00
2022-12-17T16:58:18.025Z,20.60
2022-12-17T17:00:46.594Z,22.67
2022-12-17T17:03:13.701Z,21.23
2022-12-17T17:05:42.083Z,21.17
2022-12-17T17:08:09.305Z,20.93
2022-12-17T17:10:37.088Z,21.70
2022-12-17T17:13:04.551Z,20.67
2022-12-17T17:15:31.698Z,22.20
2022-12-17T17:18:01.994Z,21.73
2022-12-17T17:20:32.519Z,22.53
2022-12-17T17:23:00.097Z,22.13
2022-12-17T17:25:43.926Z,22.03
2022-12-17T17:28:14.455Z,21.63
2022-12-17T17:30:41.328Z,22.17
2022-12-17T17:33:08.078Z,21.03
2022-12-17T17:35:35.253Z,21.70
2022-12-17T17:38:02.166Z,23.27
2022-12-17T17:40:28.914Z,22.97
2022-12-17T17:42:56.062Z,22.27
2022-12-17T17:45:23.181Z,22.70
2022-12-17T17:47:50.055Z,22.20
2022-12-17T17:50:17.113Z,23.30
2022-12-17T17:52:44.158Z,22.97
2022-12-17T17:55:10.919Z,22.33
2022-12-17T17:57:37.781Z,23.00
2022-12-17T18:00:05.453Z,22.83
2022-12-17T18:02:32.411Z,22.93
2022-12-17T18:04:59.709Z,23.80
2022-12-17T18:07:27.462Z,21.80
2022-12-17T18:09:55.211Z,21.33
2022-12-17T18:12:41.759Z,22.37
2022-12-17T18:15:18.080Z,23.43
2022-12-17T18:17:47.860Z,21.40
2022-12-17T18:20:15.287Z,21.03
2022-12-17T18:22:43.311Z,22.00
2022-12-17T18:25:10.796Z,20.13
2022-12-17T18:27:38.343Z,20.60
2022-12-17T18:30:05.661Z,22.00
2022-12-17T18:32:33.082Z,21.87
2022-12-17T18:35:00.069Z,21.83
2022-12-17T18:37:26.990Z,21.50
2022-12-17T18:39:53.854Z,22.87
2022-12-17T18:42:38.908Z,20.67
2022-12-17T18:45:06.572Z,21.20
2022-12-17T18:47:33.463Z,21.13
2022-12-17T18:50:00.286Z,22.17
2022-12-17T18:52:27.618Z,22.87
2022-12-17T18:54:54.441Z,21.60
2022-12-17T18:57:21.334Z,21.90
2022-12-17T18:59:49.155Z,21.70
2022-12-17T19:02:16.463Z,21.30
2022-12-17T19:04:43.487Z,21.53
2022-12-17T19:07:11.525Z,22.33
2022-12-17T19:09:40.246Z,24.23
2022-12-17T19:12:08.954Z,24.00
2022-12-17T19:14:36.860Z,22.10
2022-12-17T19:17:05.159Z,21.33
2022-12-17T19:19:32.532Z,21.93
2022-12-17T19:22:00.544Z,21.17
2022-12-17T19:24:27.609Z,22.37
2022-12-17T19:26:54.807Z,20.60
2022-12-17T19:29:22.686Z,22.73
2022-12-17T19:31:49.955Z,22.30
2022-12-17T19:34:18.969Z,23.17
2022-12-17T19:36:47.222Z,21.73
2022-12-17T19:39:17.419Z,23.07
2022-12-17T19:41:44.581Z,23.33
2022-12-17T19:44:14.621Z,21.80
2022-12-17T19:46:42.044Z,23.00
2022-12-17T19:49:11.465Z,22.27
2022-12-17T19:51:40.704Z,22.87
2022-12-17T19:54:09.085Z,23.40
2022-12-17T19:56:36.883Z,23.70
2022-12-17T19:59:08.539Z,24.23
2022-12-17T20:01:46.652Z,22.60
2022-12-17T20:04:16.071Z,21.13
2022-12-17T20:06:44.703Z,21.53
2022-12-17T20:09:12.042Z,21.10
2022-12-17T20:11:40.467Z,22.00
2022-12-17T20:14:16.355Z,21.50
2022-12-17T20:16:48.421Z,22.03
2022-12-17T20:19:21.094Z,21.80
2022-12-17T20:21:48.847Z,21.80
2022-12-17T20:24:16.995Z,21.77
2022-12-17T20:26:44.816Z,22.53
2022-12-17T20:29:12.754Z,22.00
2022-12-17T20:31:40.107Z,20.63
2022-12-17T20:34:11.549Z,22.10
2022-12-17T20:36:39.333Z,22.03
2022-12-17T20:39:07.675Z,21.77
2022-12-17T20:41:36.475Z,22.23
2022-12-17T20:44:10.902Z,21.03
2022-12-17T20:46:38.655Z,20.20
2022-12-17T20:49:05.970Z,19.73
2022-12-17T20:51:34.569Z,20.40
2022-12-17T20:54:02.745Z,21.40
2022-12-17T20:56:32.561Z,21.47
2022-12-17T20:59:05.606Z,22.30
2022-12-17T21:01:35.195Z,19.93
2022-12-17T21:04:03.044Z,19.83
2022-12-17T21:06:37.884Z,19.17
2022-12-17T21:09:05.218Z,20.10
2022-12-17T21:11:33.534Z,19.63
2022-12-17T21:14:09.621Z,20.43
2022-12-17T21:16:38.248Z,21.03
2022-12-17T21:19:06.455Z,20.47
2022-12-17T21:21:37.270Z,21.37
2022-12-17T21:24:05.245Z,21.03
2022-12-17T21:26:35.558Z,21.03
2022-12-17T21:29:05.499Z,18.23
2022-12-17T21:31:35.575Z,19.60
2022-12-17T21:34:04.730Z,20.53
2022-12-17T21:36:34.019Z,18.83
2022-12-17T21:39:08.873Z,20.23
2022-12-17T21:41:40.332Z,23.33
2022-12-17T21:44:14.093Z,21.67
2022-12-17T21:46:48.523Z,23.40
2022-12-17T21:49:17.231Z,23.53
2022-12-17T21:51:44.831Z,19.50
2022-12-17T21:54:17.305Z,22.83
2022-12-17T21:56:47.348Z,22.47
2022-12-17T21:59:14.253Z,22.50
2022-12-17T22:01:41.282Z,21.80
2022-12-17T22:04:08.343Z,21.03
2022-12-17T22:06:46.126Z,19.30
2022-12-17T22:09:24.061Z,21.37
2022-12-17T22:12:24.300Z,21.23
2022-12-17T22:14:51.541Z,22.43
2022-12-17T22:17:18.386Z,20.83
2022-12-17T22:19:45.579Z,19.93
2022-12-17T22:22:12.700Z,20.87
2022-12-17T22:24:39.448Z,20.40
2022-12-17T22:27:08.825Z,20.53
2022-12-17T22:29:55.521Z,20.27
2022-12-17T22:32:41.237Z,20.90
2022-12-17T22:36:26.763Z,20.97
2022-12-17T22:40:00.405Z,18.87
2022-12-17T22:44:29.144Z,23.40
2022-12-17T22:44:51.147Z,22.90
2022-12-17T22:46:17.510Z,20.57
2022-12-17T22:48:44.456Z,20.13
2022-12-17T22:51:13.342Z,19.40
2022-12-17T22:53:49.607Z,19.53
2022-12-17T22:56:32.323Z,19.63
2022-12-17T22:59:05.923Z,19.93
2022-12-17T23:01:33.651Z,19.03
2022-12-17T23:04:02.185Z,20.57
2022-12-17T23:06:29.341Z,18.90
2022-12-17T23:08:56.359Z,19.40
2022-12-17T23:11:25.634Z,18.83
2022-12-17T23:13:54.125Z,19.00
2022-12-17T23:16:21.621Z,18.47
2022-12-17T23:18:50.381Z,20.17
2022-12-17T23:21:19.877Z,18.73
2022-12-17T23:23:46.985Z,18.40
2022-12-17T23:26:18.752Z,19.00
2022-12-17T23:28:48.163Z,18.23
2022-12-17T23:31:21.138Z,19.03
2022-12-17T23:33:52.764Z,19.47
2022-12-17T23:36:40.080Z,19.47
2022-12-17T23:39:29.978Z,19.23
2022-12-17T23:42:17.340Z,19.33
2022-12-17T23:44:48.388Z,19.07
2022-12-17T23:47:29.885Z,18.67
2022-12-17T23:50:00.567Z,18.33
2022-12-17T23:52:27.475Z,18.53
2022-12-17T23:54:54.327Z,19.23
2022-12-17T23:57:21.257Z,21.37
2022-12-17T23:59:48.101Z,20.73
